Time;durP1;ratioP1;P1;durP2;ratioP2;P2;SDS_P1;SDS_P2;PMS_P1;PMS_P2;Temp;Humidity;BMP_temperature;BMP_pressure;BME280_temperature;BME280_humidity;BME280_pressure;Samples;Min_cycle;Max_cycle;Signal;HPM_P1;HPM_P2
2023/04/28 00:01:13;;;;;;;2.35;1.85;;;13.00;99.00;;;;;;4979183;28;20029;-74
2023/04/28 00:03:39;;;;;;;3.17;2.22;;;13.00;99.00;;;;;;4967380;28;20030;-75
2023/04/28 00:06:05;;;;;;;6.05;2.20;;;13.00;99.00;;;;;;5001798;28;20052;-74
2023/04/28 00:08:31;;;;;;;3.17;2.10;;;13.00;99.00;;;;;;5015901;28;20100;-74
2023/04/28 00:10:57;;;;;;;5.68;2.63;;;13.10;99.20;;;;;;5015384;28;20026;-75
2023/04/28 00:13:22;;;;;;;5.00;2.25;;;13.10;99.50;;;;;;5002806;28;20049;-74
2023/04/28 00:15:52;;;;;;;3.80;2.47;;;13.10;99.90;;;;;;4977601;28;20262;-74
2023/04/28 00:18:18;;;;;;;2.65;1.83;;;13.10;99.90;;;;;;4974304;28;20044;-74
2023/04/28 00:20:44;;;;;;;4.65;2.22;;;13.10;99.90;;;;;;4988139;28;20524;-74
2023/04/28 00:23:09;;;;;;;4.05;2.42;;;13.10;99.90;;;;;;4990322;28;20057;-75
2023/04/28 00:25:35;;;;;;;3.88;2.10;;;13.10;99.90;;;;;;4986678;28;20104;-75
2023/04/28 00:28:01;;;;;;;4.78;2.10;;;13.10;99.90;;;;;;4994917;28;20022;-75
2023/04/28 00:30:29;;;;;;;4.07;2.30;;;13.10;99.90;;;;;;4992810;28;20041;-74
2023/04/28 00:32:55;;;;;;;5.20;2.58;;;13.10;99.90;;;;;;4977668;28;20027;-75
2023/04/28 00:35:21;;;;;;;4.03;2.15;;;13.10;99.90;;;;;;4986478;28;20042;-75
2023/04/28 00:37:46;;;;;;;3.47;2.15;;;13.10;99.90;;;;;;4994166;28;20032;-75
2023/04/28 00:40:12;;;;;;;3.50;2.22;;;13.10;99.90;;;;;;4994929;28;20364;-75
2023/04/28 00:42:38;;;;;;;3.95;2.50;;;13.10;99.90;;;;;;4984206;28;20045;-75
2023/04/28 00:45:07;;;;;;;3.65;2.50;;;13.10;99.90;;;;;;4994377;28;20118;-75
2023/04/28 00:47:36;;;;;;;3.47;2.13;;;13.10;99.90;;;;;;4964421;28;20023;-75
2023/04/28 00:50:04;;;;;;;4.97;2.20;;;13.10;99.90;;;;;;4974411;28;20046;-74
2023/04/28 00:52:30;;;;;;;3.63;2.30;;;13.10;99.90;;;;;;4975344;28;20035;-75
2023/04/28 00:54:56;;;;;;;3.20;2.00;;;13.10;99.90;;;;;;4975671;28;20059;-75
2023/04/28 00:57:22;;;;;;;4.80;1.95;;;13.10;99.90;;;;;;4978185;28;20538;-75
2023/04/28 00:59:48;;;;;;;4.47;2.38;;;13.10;99.90;;;;;;4989792;28;20515;-75
2023/04/28 01:02:17;;;;;;;3.25;2.35;;;13.10;99.90;;;;;;4994583;28;20042;-75
2023/04/28 01:04:44;;;;;;;4.93;2.40;;;13.10;99.90;;;;;;4988401;28;20031;-75
2023/04/28 01:07:10;;;;;;;4.40;2.15;;;13.10;99.90;;;;;;4986106;28;20406;-75
2023/04/28 01:09:36;;;;;;;3.50;2.03;;;13.10;99.90;;;;;;4992754;28;20018;-75
2023/04/28 01:12:02;;;;;;;6.35;2.47;;;13.10;99.90;;;;;;4994151;28;20106;-75
2023/04/28 01:14:28;;;;;;;5.97;2.70;;;13.10;99.90;;;;;;4992322;28;20050;-75
2023/04/28 01:16:54;;;;;;;3.97;2.47;;;13.10;99.90;;;;;;4993247;28;20109;-75
2023/04/28 01:19:21;;;;;;;6.53;2.90;;;13.10;99.90;;;;;;5000343;28;20013;-75
2023/04/28 01:21:47;;;;;;;3.90;2.80;;;13.00;99.90;;;;;;4996994;28;20026;-75
2023/04/28 01:24:13;;;;;;;5.38;3.28;;;13.00;99.90;;;;;;4989976;28;20023;-74
2023/04/28 01:26:38;;;;;;;6.10;3.92;;;13.00;99.90;;;;;;4993171;28;20026;-74
2023/04/28 01:29:04;;;;;;;7.35;3.63;;;13.00;99.90;;;;;;4994491;28;20022;-74
2023/04/28 01:31:30;;;;;;;4.97;2.83;;;13.00;99.90;;;;;;4979479;28;20110;-74
2023/04/28 01:33:56;;;;;;;5.65;3.85;;;13.00;99.90;;;;;;4991586;28;20038;-74
2023/04/28 01:36:22;;;;;;;7.43;3.55;;;13.00;99.90;;;;;;4987110;28;20038;-74
2023/04/28 01:38:49;;;;;;;6.88;3.28;;;13.00;99.90;;;;;;4992587;28;20065;-74
2023/04/28 01:41:14;;;;;;;6.22;2.72;;;12.90;99.90;;;;;;4990920;28;20103;-73
2023/04/28 01:43:40;;;;;;;8.23;3.60;;;13.00;99.90;;;;;;4993511;28;20030;-74
2023/04/28 01:46:06;;;;;;;4.15;2.90;;;13.00;99.90;;;;;;4972373;28;20030;-73
2023/04/28 01:48:31;;;;;;;6.15;2.95;;;12.90;99.90;;;;;;4984146;28;20329;-73
2023/04/28 01:50:57;;;;;;;4.45;3.00;;;12.90;99.90;;;;;;4976072;28;20054;-76
2023/04/28 01:53:34;;;;;;;6.68;3.10;;;12.90;99.90;;;;;;4976067;28;20026;-73
2023/04/28 01:58:44;;;;;;;;;;;12.90;99.90;;;;;;4994200;28;20041;-73
2023/04/28 02:01:10;;;;;;;5.88;2.75;;;12.90;99.90;;;;;;4989814;28;19934;-74
2023/04/28 02:03:36;;;;;;;7.78;2.67;;;12.90;99.90;;;;;;4973725;28;20466;-74
2023/04/28 02:06:01;;;;;;;6.38;3.40;;;12.90;99.90;;;;;;4974208;28;20029;-74
2023/04/28 02:08:27;;;;;;;8.25;2.88;;;12.90;99.90;;;;;;4975322;28;20468;-73
2023/04/28 02:10:52;;;;;;;5.43;2.97;;;12.90;99.90;;;;;;4979401;28;20054;-75
2023/04/28 02:13:18;;;;;;;5.85;3.42;;;12.90;99.90;;;;;;4984044;28;20029;-74
2023/04/28 02:15:44;;;;;;;6.35;3.53;;;12.80;99.90;;;;;;4982072;28;20028;-74
2023/04/28 02:18:09;;;;;;;9.45;3.38;;;12.80;99.90;;;;;;4988321;28;20026;-75
2023/04/28 02:20:35;;;;;;;6.65;3.97;;;12.80;99.90;;;;;;4993821;28;20045;-74
2023/04/28 02:23:01;;;;;;;6.50;3.42;;;12.80;99.90;;;;;;5000097;28;20534;-74
2023/04/28 02:25:27;;;;;;;5.63;3.72;;;12.70;99.90;;;;;;5000125;28;20113;-75
2023/04/28 02:27:52;;;;;;;6.45;3.92;;;12.70;99.90;;;;;;4971580;28;20026;-76
2023/04/28 02:30:18;;;;;;;9.20;4.28;;;12.70;99.90;;;;;;4993219;28;20061;-75
2023/04/28 02:32:43;;;;;;;6.20;3.97;;;12.70;99.90;;;;;;4990206;28;20031;-74
2023/04/28 02:35:09;;;;;;;6.35;4.00;;;12.70;99.90;;;;;;4993154;28;20376;-75
2023/04/28 02:37:35;;;;;;;10.80;4.50;;;12.60;99.90;;;;;;4977712;28;20027;-75
2023/04/28 02:40:01;;;;;;;7.68;4.47;;;12.60;99.90;;;;;;4972794;28;20468;-75
2023/04/28 02:42:26;;;;;;;7.45;4.22;;;12.60;99.90;;;;;;4992227;28;20494;-75
2023/04/28 02:44:52;;;;;;;5.75;4.10;;;12.60;99.90;;;;;;4979310;28;20057;-74
2023/04/28 02:47:18;;;;;;;9.00;4.40;;;12.60;99.90;;;;;;4973606;28;20030;-74
2023/04/28 02:49:43;;;;;;;9.27;4.20;;;12.60;99.90;;;;;;4973658;28;20030;-75
2023/04/28 02:52:09;;;;;;;6.45;4.30;;;12.60;99.90;;;;;;4973303;28;20039;-75
2023/04/28 02:54:36;;;;;;;9.15;4.65;;;12.60;99.90;;;;;;4973971;28;20054;-75
2023/04/28 02:57:03;;;;;;;8.15;4.65;;;12.50;99.90;;;;;;4990451;28;20463;-74
2023/04/28 02:59:29;;;;;;;5.93;4.07;;;12.50;99.90;;;;;;5007011;28;20097;-74
2023/04/28 03:01:55;;;;;;;8.85;5.30;;;12.50;99.90;;;;;;5005868;28;20060;-74
2023/04/28 03:04:21;;;;;;;10.18;4.78;;;12.50;99.90;;;;;;4989745;28;20383;-74
2023/04/28 03:06:46;;;;;;;8.40;4.15;;;12.40;99.90;;;;;;4983448;28;20106;-74
2023/04/28 03:09:13;;;;;;;8.93;4.18;;;12.40;99.90;;;;;;4962610;28;20065;-74
2023/04/28 03:11:40;;;;;;;11.15;4.63;;;12.40;99.90;;;;;;4988256;28;20034;-74
2023/04/28 03:14:05;;;;;;;8.88;4.85;;;12.40;99.90;;;;;;4981695;28;20022;-74
2023/04/28 03:16:32;;;;;;;8.45;4.65;;;12.40;99.90;;;;;;4986018;28;20027;-74
2023/04/28 03:18:57;;;;;;;6.82;4.65;;;12.40;99.90;;;;;;4968805;28;20033;-74
2023/04/28 03:21:25;;;;;;;9.80;5.10;;;12.40;99.90;;;;;;4979971;28;20053;-74
2023/04/28 03:23:50;;;;;;;7.50;4.45;;;12.40;99.90;;;;;;4978342;28;20030;-74
2023/04/28 03:26:16;;;;;;;6.63;4.53;;;12.40;99.90;;;;;;4981890;28;20023;-74
2023/04/28 03:28:42;;;;;;;11.70;5.13;;;12.40;99.90;;;;;;4985696;28;20061;-74
2023/04/28 03:31:07;;;;;;;7.93;4.38;;;12.40;99.90;;;;;;4981530;28;20456;-75
2023/04/28 03:33:33;;;;;;;13.27;5.25;;;12.40;99.90;;;;;;4979230;28;20035;-74
2023/04/28 03:35:59;;;;;;;7.38;4.60;;;12.40;99.90;;;;;;4985724;28;20154;-73
2023/04/28 03:38:24;;;;;;;9.02;4.35;;;12.30;99.90;;;;;;4970078;28;20041;-73
2023/04/28 03:40:50;;;;;;;7.93;4.22;;;12.30;99.90;;;;;;4972731;28;20034;-73
2023/04/28 03:43:16;;;;;;;6.97;4.70;;;12.30;99.90;;;;;;4973618;28;20035;-73
2023/04/28 03:45:41;;;;;;;9.32;4.45;;;12.30;99.90;;;;;;4985465;28;20023;-73
2023/04/28 03:48:07;;;;;;;10.15;4.88;;;12.30;99.90;;;;;;4985665;28;20023;-74
2023/04/28 03:50:33;;;;;;;14.25;4.85;;;12.30;99.90;;;;;;4984812;28;20031;-73
2023/04/28 03:52:58;;;;;;;9.50;4.88;;;12.30;99.90;;;;;;4990258;28;20029;-73
2023/04/28 03:55:24;;;;;;;7.47;4.45;;;12.30;99.90;;;;;;4970207;28;20026;-74
2023/04/28 03:57:51;;;;;;;9.25;4.53;;;12.30;99.90;;;;;;4989007;28;20034;-74
2023/04/28 04:00:17;;;;;;;7.10;4.15;;;12.30;99.90;;;;;;4992501;28;20053;-74
2023/04/28 04:02:42;;;;;;;7.82;4.43;;;12.30;99.90;;;;;;4984970;28;20030;-74
2023/04/28 04:05:08;;;;;;;9.52;4.45;;;12.30;99.90;;;;;;4990747;28;20482;-73
2023/04/28 04:07:33;;;;;;;7.38;3.95;;;12.20;99.90;;;;;;4986091;28;20026;-73
2023/04/28 04:09:59;;;;;;;6.78;4.20;;;12.20;99.90;;;;;;4990042;28;20029;-73
2023/04/28 04:12:25;;;;;;;7.20;4.40;;;12.30;99.90;;;;;;4982909;28;20030;-73
2023/04/28 04:14:51;;;;;;;6.13;4.15;;;12.20;99.90;;;;;;4989755;28;20077;-74
2023/04/28 04:17:16;;;;;;;6.97;4.38;;;12.30;99.90;;;;;;4988839;28;20109;-74
2023/04/28 04:19:42;;;;;;;11.65;4.50;;;12.30;99.90;;;;;;4987349;28;20545;-74
2023/04/28 04:22:07;;;;;;;7.38;4.32;;;12.30;99.90;;;;;;4966440;28;20050;-73
2023/04/28 04:24:33;;;;;;;7.40;4.15;;;12.30;99.90;;;;;;4994716;28;20491;-73
2023/04/28 04:26:59;;;;;;;9.30;4.00;;;12.30;99.90;;;;;;4991507;28;20109;-74
2023/04/28 04:29:24;;;;;;;12.88;4.55;;;12.30;99.90;;;;;;4985947;28;20392;-73
2023/04/28 04:31:50;;;;;;;7.25;4.78;;;12.30;99.90;;;;;;4987323;28;20041;-74
2023/04/28 04:34:15;;;;;;;11.05;4.35;;;12.40;99.90;;;;;;4984798;28;20026;-74
2023/04/28 04:36:41;;;;;;;10.05;4.97;;;12.40;99.90;;;;;;4993779;28;20494;-73
2023/04/28 04:39:06;;;;;;;9.15;4.68;;;12.40;99.90;;;;;;4990437;28;20038;-74
2023/04/28 04:41:32;;;;;;;10.27;5.60;;;12.40;99.90;;;;;;4982153;28;20106;-73
2023/04/28 04:43:58;;;;;;;8.40;5.45;;;12.40;99.90;;;;;;4991528;28;20039;-74
2023/04/28 04:46:23;;;;;;;7.93;5.43;;;12.30;99.90;;;;;;4981765;28;20033;-74
2023/04/28 04:48:49;;;;;;;8.25;4.93;;;12.30;99.90;;;;;;4993838;28;20158;-74
2023/04/28 04:53:47;;;;;;;8.88;4.63;;;12.30;99.90;;;;;;5007975;28;21021;-76
2023/04/28 04:56:13;;;;;;;7.05;4.57;;;12.30;99.90;;;;;;5005626;28;20037;-75
2023/04/28 04:58:38;;;;;;;8.02;4.30;;;12.30;99.90;;;;;;5004396;28;20092;-75
2023/04/28 05:01:04;;;;;;;6.10;3.33;;;12.40;99.90;;;;;;5011944;28;20033;-76
2023/04/28 05:03:30;;;;;;;3.78;2.78;;;12.30;99.90;;;;;;4995374;28;20038;-76
2023/04/28 05:05:55;;;;;;;6.07;3.35;;;12.40;99.90;;;;;;4988570;28;20045;-76
2023/04/28 05:08:21;;;;;;;5.65;3.38;;;12.40;99.90;;;;;;5004172;28;20030;-76
2023/04/28 05:10:47;;;;;;;4.43;2.75;;;12.40;99.90;;;;;;4997291;28;20034;-76
2023/04/28 05:13:12;;;;;;;10.18;3.70;;;12.40;99.90;;;;;;4997962;28;20032;-76
2023/04/28 05:15:38;;;;;;;10.23;3.63;;;12.50;99.90;;;;;;4997290;28;20831;-76
2023/04/28 05:18:09;;;;;;;7.90;3.00;;;12.50;99.90;;;;;;4991209;28;20053;-76
2023/04/28 05:20:35;;;;;;;7.25;2.72;;;12.50;99.90;;;;;;4997660;28;20054;-77
2023/04/28 05:23:01;;;;;;;4.80;2.92;;;12.50;99.90;;;;;;5012690;28;20049;-77
2023/04/28 05:25:27;;;;;;;5.40;2.85;;;12.60;99.90;;;;;;4996876;28;20073;-76
2023/04/28 05:27:53;;;;;;;3.13;2.45;;;12.60;99.90;;;;;;5005970;28;20038;-76
2023/04/28 05:30:19;;;;;;;4.95;2.65;;;12.60;99.90;;;;;;4992754;28;20112;-76
2023/04/28 05:32:45;;;;;;;4.10;2.55;;;12.60;99.90;;;;;;4997690;28;20024;-76
2023/04/28 05:35:10;;;;;;;5.03;2.50;;;12.60;99.90;;;;;;4973852;28;20038;-76
2023/04/28 05:37:37;;;;;;;4.75;3.03;;;12.60;99.90;;;;;;4990466;28;20076;-74
2023/04/28 05:40:03;;;;;;;4.80;2.17;;;12.70;99.90;;;;;;4989388;28;20417;-75
2023/04/28 05:42:28;;;;;;;5.30;2.92;;;12.60;99.90;;;;;;4989278;28;20045;-75
2023/04/28 05:44:54;;;;;;;5.75;2.67;;;12.60;99.90;;;;;;4996152;28;20034;-77
2023/04/28 05:47:20;;;;;;;4.47;2.88;;;12.70;99.90;;;;;;5003501;28;20495;-74
2023/04/28 05:49:45;;;;;;;4.78;3.00;;;12.70;99.90;;;;;;5008706;28;20046;-74
2023/04/28 05:52:11;;;;;;;3.80;2.80;;;12.70;99.90;;;;;;4996168;28;20038;-75
2023/04/28 05:54:37;;;;;;;4.28;2.70;;;12.70;99.90;;;;;;4989579;28;20390;-74
2023/04/28 05:57:03;;;;;;;4.55;2.78;;;12.70;99.90;;;;;;4992665;28;20023;-75
2023/04/28 06:28:47;;;;;;;5.80;2.85;;;12.70;99.90;;;;;;1394286;26;20057;-76
2023/04/28 06:31:12;;;;;;;5.15;3.22;;;12.70;99.90;;;;;;4994104;28;20077;-75
2023/04/28 06:33:38;;;;;;;4.75;3.20;;;12.70;99.90;;;;;;5012090;28;20109;-75
2023/04/28 06:36:04;;;;;;;6.32;3.47;;;12.70;99.90;;;;;;5010329;28;20022;-79
2023/04/28 06:38:30;;;;;;;4.00;2.88;;;12.70;99.90;;;;;;5010276;28;20117;-77
2023/04/28 06:40:56;;;;;;;5.07;3.00;;;12.70;99.90;;;;;;5016503;28;20049;-78
2023/04/28 06:43:21;;;;;;;3.90;2.50;;;12.70;99.90;;;;;;5010622;28;20442;-78
2023/04/28 06:45:47;;;;;;;3.88;2.55;;;12.70;99.90;;;;;;4998302;28;20138;-79
2023/04/28 06:48:13;;;;;;;5.20;3.08;;;12.70;99.90;;;;;;5019845;28;20022;-79
2023/04/28 06:50:38;;;;;;;8.25;3.20;;;12.70;99.90;;;;;;5004088;28;20473;-81
2023/04/28 06:53:04;;;;;;;5.18;3.40;;;12.70;99.90;;;;;;5021362;28;20108;-81
2023/04/28 06:55:30;;;;;;;3.63;2.55;;;12.70;99.90;;;;;;5025932;28;20028;-78
2023/04/28 06:57:56;;;;;;;3.58;2.70;;;12.70;99.90;;;;;;5011029;28;20038;-79
2023/04/28 07:00:21;;;;;;;5.10;3.22;;;12.70;99.90;;;;;;5026989;28;20030;-81
2023/04/28 07:02:47;;;;;;;3.47;2.60;;;12.70;99.90;;;;;;5024930;28;20473;-79
2023/04/28 07:05:13;;;;;;;5.38;2.55;;;12.70;99.90;;;;;;5020223;28;20751;-81
2023/04/28 07:07:39;;;;;;;3.35;2.40;;;12.70;99.90;;;;;;5007932;28;20026;-82
2023/04/28 07:10:05;;;;;;;6.93;3.55;;;12.80;99.90;;;;;;5026804;28;20030;-78
2023/04/28 07:12:31;;;;;;;5.93;3.05;;;12.80;99.90;;;;;;5020541;28;20414;-80
2023/04/28 07:14:57;;;;;;;5.97;3.03;;;12.80;99.90;;;;;;5025059;28;20045;-82
2023/04/28 07:17:22;;;;;;;4.60;2.53;;;12.90;99.90;;;;;;5018467;28;20032;-79
2023/04/28 07:19:49;;;;;;;3.42;2.47;;;12.80;99.90;;;;;;5022102;28;20029;-80
2023/04/28 07:22:16;;;;;;;2.60;2.15;;;12.90;99.90;;;;;;5020595;28;20045;-79
2023/04/28 07:24:41;;;;;;;3.50;2.25;;;12.90;99.90;;;;;;5020938;28;20056;-80
2023/04/28 07:27:07;;;;;;;3.28;2.10;;;12.90;99.90;;;;;;5021321;28;20464;-79
2023/04/28 07:29:33;;;;;;;4.65;2.47;;;12.80;99.90;;;;;;5021301;28;20037;-80
2023/04/28 07:32:00;;;;;;;5.00;2.10;;;12.90;99.90;;;;;;5020717;28;20022;-79
2023/04/28 07:34:27;;;;;;;5.00;2.58;;;12.90;99.90;;;;;;5019203;28;20018;-79
2023/04/28 07:36:53;;;;;;;3.95;2.00;;;12.90;99.90;;;;;;5021050;28;20416;-78
2023/04/28 07:39:18;;;;;;;3.60;2.13;;;12.90;99.90;;;;;;5021440;28;20018;-80
2023/04/28 07:41:44;;;;;;;4.30;2.58;;;12.90;99.90;;;;;;5018233;28;20283;-81
2023/04/28 07:44:10;;;;;;;4.45;2.20;;;12.90;99.90;;;;;;5001548;28;20030;-81
2023/04/28 07:46:36;;;;;;;7.68;2.17;;;12.90;99.90;;;;;;5016355;28;20503;-79
2023/04/28 07:49:03;;;;;;;7.22;2.30;;;13.00;99.90;;;;;;5016558;28;20033;-79
2023/04/28 07:51:29;;;;;;;3.80;1.65;;;13.00;99.90;;;;;;5016853;28;20022;-79
2023/04/28 07:53:55;;;;;;;5.13;1.77;;;13.00;99.90;;;;;;5018214;28;20025;-79
2023/04/28 07:56:21;;;;;;;4.30;1.60;;;13.00;99.90;;;;;;5019605;28;20104;-79
2023/04/28 07:58:47;;;;;;;4.22;2.03;;;13.00;99.90;;;;;;5018073;28;20025;-78
2023/04/28 08:01:12;;;;;;;3.33;1.98;;;13.00;99.90;;;;;;5015503;28;20022;-81
2023/04/28 08:03:38;;;;;;;5.10;2.30;;;13.00;99.90;;;;;;5018708;28;20029;-80
2023/04/28 08:06:04;;;;;;;10.18;2.67;;;13.00;99.90;;;;;;5018244;28;20034;-80
2023/04/28 08:08:30;;;;;;;8.95;2.30;;;13.10;99.90;;;;;;4998225;28;20456;-81
2023/04/28 08:10:56;;;;;;;7.30;2.65;;;13.10;99.90;;;;;;5018417;28;20135;-80
2023/04/28 08:13:22;;;;;;;4.38;2.20;;;13.10;99.90;;;;;;5013786;28;20014;-80
2023/04/28 08:15:48;;;;;;;4.50;2.17;;;13.10;99.90;;;;;;5017713;28;20036;-79
2023/04/28 08:18:14;;;;;;;7.18;2.22;;;13.10;99.90;;;;;;5015950;28;20026;-78
2023/04/28 08:20:40;;;;;;;5.10;2.03;;;13.10;99.90;;;;;;5017578;28;20494;-79
2023/04/28 08:23:06;;;;;;;3.75;1.80;;;13.10;99.90;;;;;;5017707;28;20027;-79
2023/04/28 08:25:32;;;;;;;2.30;1.40;;;13.10;99.90;;;;;;5013858;28;20033;-79
2023/04/28 08:27:57;;;;;;;2.67;1.92;;;13.10;99.90;;;;;;5017421;28;20485;-78
2023/04/28 08:30:23;;;;;;;3.10;1.58;;;13.20;99.90;;;;;;5012550;28;20033;-78
2023/04/28 08:32:49;;;;;;;2.60;1.80;;;13.10;99.90;;;;;;5016559;28;20109;-77
2023/04/28 08:35:15;;;;;;;2.55;1.55;;;13.10;99.90;;;;;;5012140;28;20420;-77
2023/04/28 08:37:41;;;;;;;3.47;1.95;;;13.10;99.90;;;;;;5009733;28;20031;-75
2023/04/28 08:40:10;;;;;;;3.28;2.00;;;13.20;99.90;;;;;;5014921;28;20029;-78
2023/04/28 08:42:36;;;;;;;3.15;1.83;;;13.20;99.90;;;;;;4997261;28;20066;-77
2023/04/28 08:45:04;;;;;;;4.07;2.10;;;13.20;99.90;;;;;;5012575;28;20030;-78
2023/04/28 08:47:37;;;;;;;2.97;2.00;;;13.20;99.90;;;;;;5010458;28;20084;-77
2023/04/28 08:50:07;;;;;;;4.77;2.87;;;13.20;99.90;;;;;;5011158;28;20045;-77
2023/04/28 08:52:34;;;;;;;4.78;3.55;;;13.20;99.90;;;;;;5013269;28;20061;-76
2023/04/28 08:55:05;;;;;;;5.22;3.05;;;13.30;99.90;;;;;;5009120;28;20057;-75
2023/04/28 08:57:47;;;;;;;2.20;2.00;;;13.30;99.90;;;;;;5008351;28;20026;-76
2023/04/28 09:00:13;;;;;;;4.35;2.28;;;13.40;99.90;;;;;;5011302;28;20040;-75
2023/04/28 09:02:41;;;;;;;5.60;3.28;;;13.40;99.90;;;;;;4988429;28;20487;-75
2023/04/28 09:05:07;;;;;;;6.38;3.15;;;13.40;99.90;;;;;;5013749;28;20046;-78
2023/04/28 09:07:35;;;;;;;6.05;3.85;;;13.40;99.90;;;;;;5019953;28;20006;-79
2023/04/28 09:10:22;;;;;;;5.10;3.70;;;13.40;99.90;;;;;;5018978;28;20021;-79
2023/04/28 09:12:55;;;;;;;6.63;4.25;;;13.50;99.90;;;;;;5021825;28;20021;-77
2023/04/28 09:15:29;;;;;;;9.70;5.72;;;13.60;99.90;;;;;;5006258;28;20025;-77
2023/04/28 09:17:55;;;;;;;8.55;5.40;;;13.60;99.90;;;;;;4995045;28;20128;-74
2023/04/28 09:20:26;;;;;;;12.27;6.22;;;13.60;99.90;;;;;;5012499;28;20176;-76
2023/04/28 09:22:54;;;;;;;8.85;6.13;;;13.70;99.90;;;;;;5015080;28;20503;-76
2023/04/28 09:25:21;;;;;;;7.68;5.15;;;13.70;99.90;;;;;;5010816;28;20029;-75
2023/04/28 09:27:50;;;;;;;19.70;13.32;;;13.70;99.90;;;;;;5000197;28;20025;-74
2023/04/28 09:30:15;;;;;;;9.57;6.25;;;13.70;99.90;;;;;;5010753;28;20504;-75
2023/04/28 09:32:41;;;;;;;10.27;6.18;;;13.70;99.90;;;;;;5011248;28;20030;-75
2023/04/28 09:35:07;;;;;;;7.75;4.20;;;13.70;99.90;;;;;;5009782;28;20026;-74
2023/04/28 09:37:34;;;;;;;7.82;3.45;;;13.70;99.90;;;;;;5009291;28;20029;-75
2023/04/28 09:40:11;;;;;;;3.33;2.00;;;13.80;99.90;;;;;;5007793;28;20048;-75
2023/04/28 09:42:42;;;;;;;3.38;1.98;;;13.80;99.90;;;;;;5010069;28;20049;-76
2023/04/28 09:45:12;;;;;;;1.55;1.00;;;13.90;99.90;;;;;;5009612;28;20034;-76
2023/04/28 09:47:42;;;;;;;3.22;1.15;;;14.00;99.90;;;;;;5015854;28;20428;-77
2023/04/28 09:50:13;;;;;;;1.90;1.00;;;14.10;99.90;;;;;;5008682;28;20030;-77
2023/04/28 09:52:41;;;;;;;2.28;0.60;;;14.20;99.90;;;;;;5014026;28;20030;-77
2023/04/28 09:55:10;;;;;;;2.33;0.70;;;14.30;99.90;;;;;;5009301;28;20026;-77
2023/04/28 09:57:37;;;;;;;1.27;0.80;;;14.40;99.90;;;;;;5013811;28;20063;-77
2023/04/28 10:00:06;;;;;;;0.77;0.60;;;14.50;99.90;;;;;;4992985;28;20034;-76
2023/04/28 10:02:35;;;;;;;2.00;0.85;;;14.50;99.90;;;;;;5015665;28;20092;-77
2023/04/28 10:05:02;;;;;;;2.67;0.70;;;14.70;99.90;;;;;;5017855;28;20018;-78
2023/04/28 10:07:29;;;;;;;2.20;0.70;;;14.70;99.90;;;;;;5011360;28;20124;-77
2023/04/28 10:09:55;;;;;;;2.75;1.67;;;14.80;99.90;;;;;;5014409;28;20052;-78
2023/04/28 10:12:23;;;;;;;1.95;1.15;;;15.00;99.90;;;;;;5013877;28;20030;-77
2023/04/28 10:14:53;;;;;;;2.15;0.93;;;15.10;99.90;;;;;;5013685;28;20061;-78
2023/04/28 10:17:20;;;;;;;1.05;0.60;;;15.20;99.90;;;;;;5015847;28;20014;-78
2023/04/28 10:19:48;;;;;;;2.08;0.70;;;15.30;99.90;;;;;;4998209;28;20053;-78
2023/04/28 10:22:49;;;;;;;0.90;0.68;;;15.40;99.90;;;;;;5013893;28;20502;-78
2023/04/28 10:25:28;;;;;;;2.38;1.00;;;15.50;99.90;;;;;;4949030;28;20478;-70
2023/04/28 10:27:55;;;;;;;0.82;0.50;;;15.60;99.90;;;;;;5004469;28;20336;-71
2023/04/28 10:30:24;;;;;;;1.98;0.90;;;15.70;99.90;;;;;;4996094;28;20026;-71
2023/04/28 10:33:14;;;;;;;1.00;0.60;;;15.80;99.90;;;;;;5008543;28;20054;-71
2023/04/28 10:35:46;;;;;;;1.95;0.80;;;15.90;99.90;;;;;;5009221;28;20033;-71
2023/04/28 10:38:15;;;;;;;1.83;1.00;;;16.00;99.90;;;;;;5006194;28;20107;-70
2023/04/28 10:40:44;;;;;;;1.02;0.88;;;16.20;99.90;;;;;;5006034;28;20091;-70
2023/04/28 10:43:31;;;;;;;1.10;0.80;;;16.20;99.90;;;;;;5008954;28;20114;-70
2023/04/28 10:46:00;;;;;;;2.13;0.90;;;16.30;99.90;;;;;;5005764;28;20125;-71
2023/04/28 10:48:25;;;;;;;1.55;0.80;;;16.30;99.90;;;;;;4985177;28;20027;-69
2023/04/28 10:51:06;;;;;;;0.68;0.68;;;16.40;99.90;;;;;;5008295;28;20507;-72
2023/04/28 10:53:42;;;;;;;1.38;0.73;;;16.50;99.90;;;;;;5007059;28;20018;-72
2023/04/28 10:56:08;;;;;;;1.15;0.60;;;16.50;99.90;;;;;;5007872;28;20166;-69
2023/04/28 10:58:36;;;;;;;1.95;0.60;;;16.50;99.90;;;;;;5010189;28;20516;-70
2023/04/28 11:01:20;;;;;;;;;;;;;;;;;;;;;
2023/04/28 11:04:09;;;;;;;1.15;0.70;;;16.70;99.90;;;;;;5006243;28;20042;-70
2023/04/28 11:06:43;;;;;;;1.45;0.75;;;16.80;99.90;;;;;;5006607;28;24369;-71
2023/04/28 11:09:12;;;;;;;2.35;0.82;;;17.00;99.90;;;;;;5006397;28;20105;-70
2023/04/28 11:11:39;;;;;;;1.98;0.90;;;17.10;99.90;;;;;;5009683;28;20022;-69
2023/04/28 11:14:19;;;;;;;1.17;0.70;;;17.30;99.90;;;;;;5003424;28;20477;-70
2023/04/28 11:16:58;;;;;;;2.03;0.60;;;17.40;99.90;;;;;;4991203;28;20821;-70
2023/04/28 11:19:25;;;;;;;1.17;0.70;;;17.50;99.90;;;;;;5005916;28;20221;-70
2023/04/28 11:21:56;;;;;;;1.58;0.88;;;17.50;99.90;;;;;;4998939;28;20125;-78
2023/04/28 11:24:29;;;;;;;0.73;0.43;;;17.60;99.90;;;;;;5021692;28;20022;-79
2023/04/28 11:26:56;;;;;;;1.85;1.50;;;17.60;99.90;;;;;;5019260;28;20041;-78
2023/04/28 11:29:41;;;;;;;0.88;0.70;;;17.60;99.90;;;;;;5019115;28;20026;-80
2023/04/28 11:32:08;;;;;;;1.17;0.52;;;17.70;99.90;;;;;;5023667;28;20034;-79
2023/04/28 11:34:35;;;;;;;1.17;0.45;;;17.70;99.90;;;;;;5019393;28;20025;-81
2023/04/28 11:37:02;;;;;;;1.67;0.70;;;17.60;99.90;;;;;;5019531;28;20041;-80
2023/04/28 11:39:32;;;;;;;0.40;0.35;;;17.60;99.90;;;;;;5014754;28;20477;-80
2023/04/28 11:42:01;;;;;;;0.50;0.40;;;17.60;99.90;;;;;;4999473;28;20026;-80
2023/04/28 11:44:28;;;;;;;0.93;0.35;;;17.60;99.90;;;;;;5010092;28;20040;-82
2023/04/28 11:46:58;;;;;;;2.38;0.63;;;17.60;99.90;;;;;;5003130;28;20037;-79
2023/04/28 11:49:27;;;;;;;7.43;1.83;;;17.70;99.90;;;;;;5021726;28;20520;-80
2023/04/28 11:51:53;;;;;;;8.77;2.97;;;17.70;99.90;;;;;;4999049;28;20038;-77
2023/04/28 11:54:27;;;;;;;13.95;5.05;;;17.80;99.90;;;;;;5015664;28;20064;-80
2023/04/28 11:56:54;;;;;;;1.05;0.75;;;17.80;99.90;;;;;;5019014;28;20033;-81
2023/04/28 11:59:32;;;;;;;1.60;0.60;;;17.80;99.90;;;;;;5018276;28;20030;-80
2023/04/28 12:02:02;;;;;;;0.90;0.50;;;17.80;99.90;;;;;;5020693;28;20636;-78
2023/04/28 12:04:39;;;;;;;0.70;0.50;;;17.90;99.90;;;;;;5021631;28;20030;-77
2023/04/28 12:07:18;;;;;;;1.27;0.75;;;18.00;99.90;;;;;;5023355;28;20068;-79
2023/04/28 12:10:10;;;;;;;0.70;0.40;;;18.10;99.90;;;;;;5018983;28;20018;-78
2023/04/28 12:12:36;;;;;;;0.68;0.40;;;18.10;99.90;;;;;;5001530;28;20124;-79
2023/04/28 12:15:06;;;;;;;1.98;0.45;;;18.10;99.90;;;;;;5020478;28;20811;-80
2023/04/28 12:17:38;;;;;;;0.75;0.30;;;18.10;99.90;;;;;;5002786;28;20089;-79
2023/04/28 12:20:06;;;;;;;2.90;0.52;;;18.00;99.90;;;;;;5018390;28;20022;-79
2023/04/28 12:22:47;;;;;;;0.40;0.40;;;18.00;99.90;;;;;;5003150;28;20034;-79
2023/04/28 12:25:16;;;;;;;1.00;0.43;;;18.00;99.90;;;;;;5019711;28;20022;-81
2023/04/28 12:28:01;;;;;;;0.60;0.40;;;18.10;99.90;;;;;;5018611;28;20049;-77
2023/04/28 12:30:27;;;;;;;1.10;0.50;;;18.10;99.90;;;;;;5007162;28;20033;-79
2023/04/28 12:32:54;;;;;;;0.45;0.30;;;18.10;99.90;;;;;;5021803;28;20041;-77
2023/04/28 12:35:27;;;;;;;1.88;0.55;;;18.10;99.90;;;;;;5008384;28;20054;-80
2023/04/28 12:37:54;;;;;;;2.30;0.60;;;18.20;99.90;;;;;;5005487;28;20049;-79
2023/04/28 12:40:21;;;;;;;1.33;0.40;;;18.20;99.90;;;;;;5024401;28;20044;-79
2023/04/28 12:42:46;;;;;;;1.40;0.40;;;18.20;99.90;;;;;;5031247;28;20022;-78
2023/04/28 12:45:12;;;;;;;0.30;0.30;;;18.20;99.90;;;;;;5027308;28;20046;-77
2023/04/28 12:47:38;;;;;;;1.30;0.70;;;18.20;99.90;;;;;;5025415;28;20044;-77
2023/04/28 12:50:05;;;;;;;0.50;0.40;;;18.30;99.90;;;;;;5025024;28;20029;-77
2023/04/28 12:52:32;;;;;;;0.82;0.50;;;18.30;99.90;;;;;;5021426;28;20144;-79
2023/04/28 12:54:58;;;;;;;1.15;0.60;;;18.30;99.90;;;;;;5026448;28;20022;-79
2023/04/28 12:57:25;;;;;;;0.45;0.40;;;18.30;99.90;;;;;;5010978;28;20093;-79
2023/04/28 12:59:51;;;;;;;0.47;0.38;;;18.30;99.90;;;;;;5023391;28;20052;-77
2023/04/28 13:02:17;;;;;;;1.42;0.35;;;18.30;99.90;;;;;;5021344;28;20028;-77
2023/04/28 13:04:44;;;;;;;0.95;0.40;;;18.40;99.90;;;;;;5020652;28;20021;-75
2023/04/28 13:07:14;;;;;;;0.75;0.45;;;18.50;99.90;;;;;;5020105;28;20046;-78
2023/04/28 13:09:41;;;;;;;0.82;0.60;;;18.50;99.90;;;;;;5020934;28;20018;-79
2023/04/28 13:12:07;;;;;;;1.13;0.45;;;18.60;99.90;;;;;;5007114;28;20022;-78
2023/04/28 13:14:33;;;;;;;3.47;0.93;;;18.60;99.90;;;;;;5021878;28;20127;-79
2023/04/28 13:17:00;;;;;;;2.70;0.55;;;18.60;99.90;;;;;;5021895;28;20029;-79
2023/04/28 13:19:26;;;;;;;0.32;0.32;;;18.60;99.90;;;;;;5021142;28;20472;-79
2023/04/28 13:21:52;;;;;;;0.40;0.40;;;18.60;99.90;;;;;;5022312;28;20022;-79
2023/04/28 13:24:19;;;;;;;0.50;0.45;;;18.60;99.90;;;;;;5021898;28;20537;-78